Time;durP1;ratioP1;P1;durP2;ratioP2;P2;SDS_P1;SDS_P2;PMS_P1;PMS_P2;Temp;Humidity;BMP_temperature;BMP_pressure;BME280_temperature;BME280_humidity;BME280_pressure;Samples;Min_cycle;Max_cycle;Signal;HPM_P1;HPM_P2
2022/11/19 00:04:16;;;;;;;3.37;2.03;;;;;;;17.85;64.48;95806.34;10441956;28;20037;-31
2022/11/19 00:09:16;;;;;;;4.03;2.07;;;;;;;17.85;64.08;95808.88;10436404;28;20159;-31
2022/11/19 00:14:17;;;;;;;4.20;2.00;;;;;;;17.82;64.21;95804.66;10441742;28;20322;-30
2022/11/19 00:19:17;;;;;;;2.50;1.77;;;;;;;17.82;64.87;95811.44;10437587;28;20288;-30
2022/11/19 00:24:18;;;;;;;3.00;2.25;;;;;;;17.80;64.64;95818.19;10437593;28;20113;-31
2022/11/19 00:29:18;;;;;;;3.17;2.03;;;;;;;17.80;64.11;95820.72;10437868;28;20453;-31
2022/11/19 00:34:19;;;;;;;3.70;2.10;;;;;;;17.77;64.47;95810.66;10432235;28;20136;-32
2022/11/19 00:39:19;;;;;;;3.43;2.17;;;;;;;17.81;64.42;95809.75;10431256;28;20314;-31
2022/11/19 00:44:19;;;;;;;2.30;1.70;;;;;;;17.77;64.32;95808.13;10436133;28;20032;-31
2022/11/19 00:49:20;;;;;;;1.80;1.23;;;;;;;17.89;63.48;95815.56;10440238;28;20029;-32
2022/11/19 00:54:20;;;;;;;2.80;1.73;;;;;;;17.92;63.77;95825.66;10433216;28;20063;-31
2022/11/19 00:59:21;;;;;;;2.60;1.90;;;;;;;17.90;64.03;95822.31;10440766;28;20657;-31
2022/11/19 01:04:21;;;;;;;3.67;1.65;;;;;;;17.86;64.01;95823.19;10433668;28;20466;-30
2022/11/19 01:09:21;;;;;;;1.55;1.30;;;;;;;17.82;64.04;95822.41;10439024;28;20479;-30
2022/11/19 01:14:22;;;;;;;2.30;1.40;;;;;;;17.80;64.39;95825.78;10438921;28;20049;-31
2022/11/19 01:19:22;;;;;;;4.27;1.80;;;;;;;17.79;63.81;95824.97;10435892;28;20774;-32
2022/11/19 01:24:23;;;;;;;4.50;2.30;;;;;;;17.81;64.36;95827.47;10429381;28;20099;-31
2022/11/19 01:29:23;;;;;;;3.33;1.80;;;;;;;17.81;64.30;95827.47;10436285;28;20279;-31
2022/11/19 01:34:23;;;;;;;3.97;1.70;;;;;;;17.76;64.46;95829.22;10432121;28;20028;-31
2022/11/19 01:39:24;;;;;;;4.17;1.80;;;;;;;17.77;64.21;95843.56;10436831;28;20773;-31
2022/11/19 01:44:59;;;;;;;3.20;1.87;;;;;;;17.62;64.02;95818.41;10433284;28;20471;-31
2022/11/19 01:50:00;;;;;;;2.10;1.40;;;;;;;17.84;64.09;95847.69;10429816;28;20120;-31
2022/11/19 01:55:01;;;;;;;2.30;1.27;;;;;;;17.80;64.24;95833.38;10429202;28;20048;-30
2022/11/19 02:00:03;;;;;;;2.15;1.23;;;;;;;17.91;63.42;95846.78;10438574;28;20037;-30
2022/11/19 02:05:05;;;;;;;4.70;1.67;;;;;;;17.86;63.84;95851.06;10432745;28;20033;-31
2022/11/19 02:10:06;;;;;;;3.90;1.25;;;;;;;17.79;63.76;95846.91;10429410;28;20479;-31
2022/11/19 02:15:12;;;;;;;2.22;1.40;;;;;;;17.80;63.92;95858.72;10436749;28;20123;-30
2022/11/19 02:20:18;;;;;;;1.88;1.30;;;;;;;17.78;63.65;95847.75;10434184;28;20235;-31
2022/11/19 02:25:46;;;;;;;1.50;1.10;;;;;;;17.80;63.24;95846.91;10431522;28;20044;-30
2022/11/19 02:31:21;;;;;;;2.85;1.60;;;;;;;17.80;63.41;95854.50;10426256;28;20021;-29
2022/11/19 02:36:58;;;;;;;2.15;1.25;;;;;;;17.80;63.20;95854.50;10425809;28;20053;-31
2022/11/19 02:42:06;;;;;;;2.25;1.20;;;;;;;17.78;63.28;95857.88;10417683;28;20049;-31
2022/11/19 02:47:11;;;;;;;2.33;1.23;;;;;;;17.79;63.32;95854.50;10433019;28;20399;-31
2022/11/19 02:52:15;;;;;;;1.15;0.90;;;;;;;17.80;63.25;95853.63;10425413;28;20029;-31
2022/11/19 02:57:15;;;;;;;1.73;0.90;;;;;;;17.90;62.78;95850.19;10435258;28;20033;-30
2022/11/19 03:07:36;;;;;;;3.53;0.82;;;;;;;17.90;62.97;95847.66;10441286;28;20033;-30
2022/11/19 03:12:55;;;;;;;1.55;0.73;;;;;;;17.81;63.26;95852.78;10446467;28;20033;-31
2022/11/19 03:18:14;;;;;;;1.67;1.05;;;;;;;17.80;63.33;95856.19;10433741;28;20029;-31
2022/11/19 03:23:28;;;;;;;1.60;1.17;;;;;;;17.79;63.53;95852.81;10433219;28;20024;-31
2022/11/19 03:28:34;;;;;;;2.60;1.20;;;;;;;17.78;63.04;95840.16;10441945;28;20069;-30
2022/11/19 03:33:45;;;;;;;1.40;0.98;;;;;;;17.82;63.26;95844.38;10435979;28;20086;-31
2022/11/19 03:38:52;;;;;;;3.70;0.80;;;;;;;17.79;63.08;95846.91;10427377;28;20126;-31
2022/11/19 03:43:54;;;;;;;;;;;;;;;17.77;63.56;95851.16;10439880;28;20037;-31
2022/11/19 03:48:58;;;;;;;3.22;0.93;;;;;;;17.75;63.26;95851.16;10435531;28;19917;-31
2022/11/19 03:53:58;;;;;;;1.60;0.90;;;;;;;17.75;63.23;95847.81;10442400;28;20083;-32
2022/11/19 03:58:59;;;;;;;1.20;0.73;;;;;;;17.85;63.12;95850.22;10442637;28;20063;-31
2022/11/19 04:09:18;;;;;;;2.25;1.00;;;;;;;17.89;63.03;95851.84;10435100;28;20049;-32
2022/11/19 04:14:19;;;;;;;2.25;0.80;;;;;;;17.84;63.42;95853.59;10440526;28;20424;-31
2022/11/19 04:19:19;;;;;;;2.10;0.97;;;;;;;17.76;63.21;95846.94;10437773;28;20563;-30
2022/11/19 04:24:20;;;;;;;0.90;0.70;;;;;;;17.79;62.98;95860.41;10430866;28;20025;-32
2022/11/19 04:29:20;;;;;;;1.47;0.90;;;;;;;17.76;62.99;95852.00;10438934;28;20036;-30
2022/11/19 04:34:20;;;;;;;1.77;0.60;;;;;;;17.74;63.22;95846.13;10432716;28;20276;-28
2022/11/19 04:39:21;;;;;;;1.97;1.03;;;;;;;17.74;62.70;95856.25;10425102;28;20291;-31
2022/11/19 04:44:21;;;;;;;2.23;0.87;;;;;;;17.75;63.10;95858.75;10438279;28;20044;-30
2022/11/19 04:49:21;;;;;;;0.90;0.63;;;;;;;17.75;63.32;95863.00;10434426;28;20390;-31
2022/11/19 04:54:22;;;;;;;0.80;0.53;;;;;;;17.74;63.01;95867.22;10441507;28;20291;-31
2022/11/19 04:59:22;;;;;;;1.97;1.00;;;;;;;17.74;63.34;95872.28;10436823;28;20036;-30
2022/11/19 05:04:23;;;;;;;1.10;0.67;;;;;;;17.83;62.72;95866.28;10441141;28;20060;-31
2022/11/19 05:09:23;;;;;;;3.03;1.00;;;;;;;17.88;63.29;95875.50;10435665;28;20275;-31
2022/11/19 05:14:23;;;;;;;1.63;0.90;;;;;;;17.86;62.80;95871.31;10438995;28;20052;-31
2022/11/19 05:19:24;;;;;;;0.80;0.70;;;;;;;17.81;63.05;95878.94;10435517;28;20041;-30
2022/11/19 05:24:24;;;;;;;1.53;0.80;;;;;;;17.73;62.97;95864.72;10429371;28;20291;-30
2022/11/19 05:29:24;;;;;;;1.33;0.57;;;;;;;17.75;63.34;95873.94;10435163;28;20032;-31
2022/11/19 05:34:25;;;;;;;3.07;0.70;;;;;;;17.74;62.84;95863.84;10428825;28;20127;-31
2022/11/19 05:39:25;;;;;;;2.13;0.90;;;;;;;17.74;62.69;95868.91;10428395;28;20295;-31
2022/11/19 05:44:25;;;;;;;1.00;0.70;;;;;;;17.71;63.03;95861.34;10430014;28;20087;-30
2022/11/19 05:49:26;;;;;;;1.57;0.70;;;;;;;17.73;62.62;95869.78;10423946;28;20398;-31
2022/11/19 05:54:26;;;;;;;1.33;0.90;;;;;;;17.77;62.49;95876.47;10422544;28;20033;-30
2022/11/19 05:59:27;;;;;;;1.00;0.70;;;;;;;17.81;62.53;95883.16;10431364;28;20531;-30
2022/11/19 06:04:27;;;;;;;2.30;0.60;;;;;;;17.80;62.29;95882.34;10434408;28;20395;-30
2022/11/19 06:09:27;;;;;;;1.43;0.60;;;;;;;17.69;64.11;95856.31;10430056;28;20033;-31
2022/11/19 06:14:28;;;;;;;5.43;0.90;;;;;;;17.85;63.39;95888.22;10423178;28;20025;-30
2022/11/19 06:19:28;;;;;;;2.77;0.70;;;;;;;17.86;62.29;95881.44;10439764;28;20037;-32
2022/11/19 06:24:29;;;;;;;1.80;0.85;;;;;;;17.88;62.41;95880.56;10432297;28;20071;-31
2022/11/19 06:29:29;;;;;;;2.00;0.90;;;;;;;17.83;61.96;95886.53;10435602;28;20040;-31
2022/11/19 06:34:29;;;;;;;1.65;0.95;;;;;;;17.91;61.96;95893.19;10428931;28;20036;-31
2022/11/19 06:39:30;;;;;;;1.33;0.73;;;;;;;17.96;61.12;95905.78;10438167;28;20059;-32
2022/11/19 06:44:30;;;;;;;2.20;0.80;;;;;;;17.97;61.53;95910.00;10432627;28;20295;-31
2022/11/19 06:49:31;;;;;;;0.50;0.45;;;;;;;17.92;60.27;95919.34;10441240;28;20017;-30
2022/11/19 06:54:31;;;;;;;0.47;0.40;;;;;;;17.89;58.45;95926.97;10435080;28;20039;-30
2022/11/19 06:59:31;;;;;;;1.73;0.90;;;;;;;17.87;59.86;95932.06;10442352;28;20505;-32
2022/11/19 07:04:32;;;;;;;1.03;0.50;;;;;;;17.93;59.07;95943.81;10437136;28;20338;-31
2022/11/19 07:09:32;;;;;;;1.80;0.60;;;;;;;17.88;59.54;95937.94;10440267;28;20313;-31
2022/11/19 07:14:32;;;;;;;8.40;0.80;;;;;;;17.99;59.33;95943.78;10441418;28;20037;-31
2022/11/19 07:19:33;;;;;;;1.70;0.80;;;;;;;17.98;56.95;95953.03;10428026;28;20291;-29
2022/11/19 07:24:34;;;;;;;4.38;0.95;;;;;;;17.91;58.11;95958.19;10439412;28;20032;-28
2022/11/19 07:29:35;;;;;;;1.88;0.57;;;;;;;17.94;57.15;95966.59;10435008;28;20031;-30
2022/11/19 07:34:35;;;;;;;1.20;0.88;;;;;;;17.94;58.55;95968.28;10426934;28;20396;-28
2022/11/19 07:39:35;;;;;;;1.73;0.73;;;;;;;17.97;58.73;95975.84;10440675;28;20427;-28
2022/11/19 07:44:36;;;;;;;2.00;1.13;;;;;;;17.98;59.21;95982.63;10438292;28;20033;-31
2022/11/19 07:49:36;;;;;;;4.25;1.20;;;;;;;17.96;59.52;95980.09;10432939;28;20017;-28
2022/11/19 07:54:37;;;;;;;3.90;1.77;;;;;;;18.00;59.70;95985.97;10436076;28;20036;-30
2022/11/19 07:59:37;;;;;;;5.90;1.43;;;;;;;18.01;59.86;95987.63;10432273;28;20040;-29
2022/11/19 08:04:37;;;;;;;1.97;1.27;;;;;;;18.01;60.16;95990.16;10439478;28;20417;-30
2022/11/19 08:09:38;;;;;;;2.53;1.47;;;;;;;17.99;60.32;95995.25;10438055;28;20333;-29
2022/11/19 08:14:38;;;;;;;3.47;1.37;;;;;;;18.01;60.02;95982.56;10438856;28;20291;-29
2022/11/19 08:19:39;;;;;;;2.72;1.88;;;;;;;18.05;60.43;95989.28;10440769;28;20352;-28
2022/11/19 08:24:39;;;;;;;6.83;2.50;;;;;;;18.06;60.34;95991.78;10434318;28;20040;-28
2022/11/19 08:29:39;;;;;;;6.77;2.50;;;;;;;18.05;60.19;95992.66;10442815;28;20028;-30
2022/11/19 08:34:40;;;;;;;7.28;3.25;;;;;;;18.05;60.57;95992.66;10436661;28;20525;-29
2022/11/19 08:39:40;;;;;;;5.40;2.93;;;;;;;18.00;59.71;96001.16;10439433;28;20033;-32
2022/11/19 08:44:40;;;;;;;5.17;3.27;;;;;;;17.98;59.45;95990.22;10438258;28;20522;-29
2022/11/19 08:49:41;;;;;;;3.77;2.63;;;;;;;18.04;59.81;96005.31;10432976;28;20302;-29
2022/11/19 08:54:41;;;;;;;4.90;2.50;;;;;;;18.04;60.40;96005.31;10432721;28;20084;-29
2022/11/19 08:59:42;;;;;;;11.13;2.47;;;;;;;18.00;60.07;95991.03;10419111;28;20041;-30
2022/11/19 09:04:42;;;;;;;3.97;2.17;;;;;;;18.07;59.68;96002.78;10443185;28;20037;-29
2022/11/19 09:09:42;;;;;;;5.93;2.40;;;;;;;18.00;59.69;95996.09;10434630;28;20383;-29
2022/11/19 09:14:43;;;;;;;6.00;2.60;;;;;;;18.06;59.46;96008.66;10441740;28;20063;-30
2022/11/19 09:19:44;;;;;;;12.82;3.90;;;;;;;18.06;59.49;96013.75;10445944;28;20037;-30
2022/11/19 09:24:44;;;;;;;10.55;3.80;;;;;;;18.07;59.30;96011.22;10427064;28;20033;-30
2022/11/19 09:29:44;;;;;;;9.87;2.93;;;;;;;18.07;58.82;96013.75;10437207;28;20029;-30
2022/11/19 09:34:45;;;;;;;11.33;3.30;;;;;;;18.05;58.62;96019.66;10442132;28;20152;-29
2022/11/19 09:39:45;;;;;;;8.53;2.97;;;;;;;18.03;58.31;96021.38;10425216;28;20040;-30
2022/11/19 09:45:13;;;;;;;12.33;2.90;;;;;;;18.04;58.82;96018.00;10434496;28;20033;-30
2022/11/19 09:50:30;;;;;;;7.90;2.63;;;;;;;18.07;58.79;96028.13;10431627;28;20048;-29
2022/11/19 09:55:44;;;;;;;8.57;2.70;;;;;;;18.09;58.71;96031.47;10422249;28;20033;-30
2022/11/19 10:00:44;;;;;;;7.63;3.85;;;;;;;18.10;59.04;96033.13;10427233;28;20033;-32
2022/11/19 10:06:11;;;;;;;9.50;2.72;;;;;;;18.13;58.59;96033.09;10435961;28;20090;-33
2022/11/19 10:11:31;;;;;;;5.50;1.90;;;;;;;18.15;58.75;96032.22;10430502;28;20479;-30
2022/11/19 10:17:16;;;;;;;9.73;2.03;;;;;;;18.18;59.20;96027.13;10447649;28;20453;-36
2022/11/19 10:22:23;;;;;;;6.18;2.60;;;;;;;18.20;59.14;96034.72;10462606;28;20086;-30
2022/11/19 10:27:31;;;;;;;5.85;2.00;;;;;;;18.15;58.88;96023.81;10439429;28;20045;-29
2022/11/19 10:32:39;;;;;;;12.30;3.33;;;;;;;18.05;56.91;96024.72;10444808;28;20021;-30
2022/11/19 10:37:54;;;;;;;4.40;1.98;;;;;;;18.07;58.14;96017.97;10429578;28;20042;-30
2022/11/19 10:43:03;;;;;;;10.93;2.33;;;;;;;18.10;58.28;96018.78;10445390;28;20487;-30
2022/11/19 10:48:12;;;;;;;6.95;2.13;;;;;;;18.15;58.36;96026.34;10435701;28;20025;-30
2022/11/19 10:53:17;;;;;;;5.88;2.55;;;;;;;18.10;58.65;96010.34;10434214;28;20033;-29
2022/11/19 10:58:49;;;;;;;6.05;2.40;;;;;;;18.14;59.05;96014.50;10450812;28;20044;-29
2022/11/19 11:04:24;;;;;;;10.65;2.22;;;;;;;18.13;58.88;96005.22;10433980;28;20132;-32
2022/11/19 11:09:37;;;;;;;5.88;1.95;;;;;;;17.99;59.24;96004.56;10437934;28;20499;-32
2022/11/19 11:14:52;;;;;;;9.38;1.88;;;;;;;17.98;56.37;96000.34;10435384;28;20029;-31
2022/11/19 11:20:10;;;;;;;7.80;2.17;;;;;;;18.06;58.38;95990.94;10443484;28;20037;-31
2022/11/19 11:25:24;;;;;;;9.45;2.28;;;;;;;18.13;58.59;95995.94;10437404;28;20419;-31
2022/11/19 11:30:24;;;;;;;5.75;1.55;;;;;;;18.11;59.03;95991.75;10442800;28;20055;-31
2022/11/19 11:35:28;;;;;;;5.00;1.58;;;;;;;18.07;59.21;95997.72;10445047;28;20096;-31
2022/11/19 11:40:30;;;;;;;4.63;1.67;;;;;;;18.01;59.37;95987.63;10431531;28;20507;-31
2022/11/19 11:45:35;;;;;;;3.72;1.75;;;;;;;18.06;59.65;95996.00;10449329;28;20036;-31
2022/11/19 11:50:36;;;;;;;8.40;1.90;;;;;;;17.99;59.52;95994.41;10447991;28;20035;-31
2022/11/19 11:55:37;;;;;;;3.78;1.48;;;;;;;18.03;59.92;95991.00;10443238;28;20028;-31
2022/11/19 12:00:44;;;;;;;4.43;1.15;;;;;;;18.01;59.91;95985.09;10440087;28;20040;-31
2022/11/19 12:05:59;;;;;;;;;;;;;;;18.00;60.00;95988.50;10443665;28;20028;-31
2022/11/19 12:11:19;;;;;;;3.88;1.27;;;;;;;17.97;60.33;95991.88;10441623;28;19992;-31
2022/11/19 12:16:33;;;;;;;2.95;1.38;;;;;;;17.99;60.43;95995.25;10439310;28;20148;-31
2022/11/19 12:21:58;;;;;;;3.63;1.58;;;;;;;18.03;60.42;95991.00;10443250;28;20067;-31
2022/11/19 12:27:10;;;;;;;2.33;1.20;;;;;;;18.09;60.46;95998.53;10440824;28;20139;-31
2022/11/19 12:32:45;;;;;;;2.00;1.38;;;;;;;18.06;60.37;95998.53;10442739;28;20120;-30
2022/11/19 12:38:14;;;;;;;2.90;1.38;;;;;;;18.03;60.55;95991.00;10427114;28;20025;-30
2022/11/19 12:43:37;;;;;;;2.25;1.20;;;;;;;17.98;60.64;95995.28;10446542;28;20453;-31
2022/11/19 12:48:52;;;;;;;4.05;1.58;;;;;;;17.97;60.90;95999.50;10445468;28;20411;-31
2022/11/19 12:54:03;;;;;;;3.08;1.27;;;;;;;17.96;60.91;96000.34;10428483;28;20033;-31
2022/11/19 12:59:06;;;;;;;4.63;1.25;;;;;;;17.95;61.02;96007.94;10446376;28;20493;-31
2022/11/19 13:04:15;;;;;;;1.48;0.93;;;;;;;17.96;60.86;96014.69;10431064;28;20040;-30
2022/11/19 13:09:37;;;;;;;2.47;1.05;;;;;;;17.95;61.16;96002.88;10438866;28;20029;-31
2022/11/19 13:14:52;;;;;;;4.30;1.50;;;;;;;17.90;60.30;96004.63;10439252;28;20047;-32
2022/11/19 13:19:57;;;;;;;3.10;1.20;;;;;;;17.98;60.73;96002.88;10441329;28;20033;-31
2022/11/19 13:25:19;;;;;;;3.13;1.23;;;;;;;18.03;61.03;96001.13;10425365;28;20416;-31
2022/11/19 13:30:22;;;;;;;7.28;1.50;;;;;;;18.10;61.17;96023.00;10440540;28;20048;-31
2022/11/19 13:35:46;;;;;;;4.82;1.63;;;;;;;18.14;61.42;96019.56;10442078;28;20030;-31
2022/11/19 13:41:10;;;;;;;7.97;1.98;;;;;;;18.07;61.81;96025.59;10429635;28;20068;-32
2022/11/19 13:46:32;;;;;;;4.68;1.38;;;;;;;18.01;61.96;96033.22;10429352;28;20494;-32
2022/11/19 13:51:41;;;;;;;2.58;1.10;;;;;;;18.07;61.06;96033.19;10431219;28;20518;-31
2022/11/19 13:56:45;;;;;;;7.43;1.58;;;;;;;17.98;60.84;96034.09;10443506;28;20705;-31
2022/11/19 14:02:10;;;;;;;8.30;1.58;;;;;;;17.99;61.44;96033.22;10423737;28;20034;-31
2022/11/19 14:07:36;;;;;;;7.00;1.30;;;;;;;17.98;61.48;96031.56;10428553;28;20115;-31
2022/11/19 14:12:36;;;;;;;6.18;1.48;;;;;;;18.04;61.22;96028.13;10431751;28;20087;-31
2022/11/19 14:28:40;;;;;;;2.65;1.05;;;;;;;18.07;62.06;96033.19;10432326;28;20033;-31
2022/11/19 14:33:47;;;;;;;3.83;1.17;;;;;;;18.09;62.02;96036.53;10434203;28;20112;-31
2022/11/19 14:38:57;;;;;;;3.42;1.10;;;;;;;18.05;61.82;96037.41;10418502;28;20079;-31
2022/11/19 14:44:08;;;;;;;1.83;0.88;;;;;;;18.03;62.10;96045.03;10432412;28;20116;-31
2022/11/19 14:49:24;;;;;;;2.03;1.00;;;;;;;17.99;61.90;96050.13;10439763;28;20100;-31
2022/11/19 14:54:31;;;;;;;3.65;1.10;;;;;;;17.99;62.09;96048.44;10430859;28;20398;-31
2022/11/19 14:59:35;;;;;;;1.20;1.10;;;;;;;17.98;62.26;96043.41;10433795;28;20502;-31
2022/11/19 15:04:47;;;;;;;2.95;0.93;;;;;;;17.97;61.99;96046.75;10441128;28;20044;-31
2022/11/19 15:10:08;;;;;;;1.58;0.80;;;;;;;17.97;62.14;96047.59;10427456;28;20059;-31
2022/11/19 15:15:18;;;;;;;2.50;0.93;;;;;;;17.99;62.21;96055.19;10449100;28;20094;-31
2022/11/19 15:21:00;;;;;;;4.07;1.13;;;;;;;17.99;62.19;96056.03;10450969;28;20033;-31
2022/11/19 15:26:22;;;;;;;1.73;0.80;;;;;;;17.99;62.32;96055.19;10417090;28;20099;-31
2022/11/19 15:31:59;;;;;;;1.85;1.02;;;;;;;18.07;62.36;96050.91;10438622;28;20060;-31
2022/11/19 15:37:03;;;;;;;3.13;0.90;;;;;;;18.10;61.49;96046.66;10432977;28;20040;-31
2022/11/19 15:42:12;;;;;;;3.63;0.90;;;;;;;18.00;60.10;96057.69;10442492;28;20033;-28
2022/11/19 15:47:17;;;;;;;2.90;0.65;;;;;;;18.07;60.63;96063.56;10447223;28;20058;-30
2022/11/19 15:52:30;;;;;;;4.03;0.70;;;;;;;18.06;59.22;96061.88;10437866;28;20060;-31
2022/11/19 15:57:31;;;;;;;1.63;0.63;;;;;;;18.11;59.82;96055.06;10447735;28;20025;-31
2022/11/19 16:02:37;;;;;;;1.13;0.63;;;;;;;18.14;58.68;96060.97;10433244;28;20032;-31
2022/11/19 16:07:37;;;;;;;4.15;2.05;;;;;;;18.11;58.22;96065.22;10430180;28;20495;-31
2022/11/19 16:18:16;;;;;;;2.22;0.70;;;;;;;18.00;58.74;96072.91;10440417;28;20021;-31
2022/11/19 16:23:22;;;;;;;4.27;0.80;;;;;;;18.09;57.83;96077.88;10430642;28;20036;-32
2022/11/19 16:28:26;;;;;;;1.95;0.77;;;;;;;18.09;58.18;96093.06;10441714;28;20029;-32
2022/11/19 16:33:28;;;;;;;1.15;0.70;;;;;;;18.02;58.45;96090.63;10448319;28;20032;-31
2022/11/19 16:38:29;;;;;;;1.20;0.90;;;;;;;18.09;58.00;96084.66;10430571;28;20037;-30
2022/11/19 16:43:29;;;;;;;2.97;1.03;;;;;;;18.14;57.48;96087.97;10444472;28;20506;-30
2022/11/19 16:48:48;;;;;;;1.75;1.05;;;;;;;18.12;57.94;96094.75;10434098;28;20487;-31
2022/11/19 16:53:48;;;;;;;2.50;0.85;;;;;;;18.05;57.62;96098.19;10426507;28;20119;-31
2022/11/19 16:58:58;;;;;;;2.30;0.77;;;;;;;18.08;58.11;96105.78;10447597;28;20454;-31
2022/11/19 17:04:02;;;;;;;3.45;1.10;;;;;;;18.09;58.31;96103.22;10441066;28;20378;-31
2022/11/19 17:09:05;;;;;;;3.13;0.70;;;;;;;18.09;58.91;96108.28;10439220;28;20119;-31
2022/11/19 17:14:33;;;;;;;3.17;1.02;;;;;;;18.10;58.83;96109.13;10443862;28;20112;-30
2022/11/19 17:19:35;;;;;;;2.15;0.80;;;;;;;18.08;59.16;96113.38;10445264;28;20029;-31
2022/11/19 17:24:41;;;;;;;2.25;0.70;;;;;;;18.06;59.37;96117.59;10432987;28;20032;-32
2022/11/19 17:29:44;;;;;;;1.60;1.15;;;;;;;18.02;59.37;96115.94;10426140;28;20026;-31
2022/11/19 17:34:48;;;;;;;2.83;0.77;;;;;;;18.05;59.71;96136.19;10435016;28;20094;-31
2022/11/19 17:39:48;;;;;;;1.42;1.00;;;;;;;18.09;58.97;96137.84;10429302;28;20051;-30
2022/11/19 17:44:48;;;;;;;1.10;0.90;;;;;;;18.09;59.35;96148.81;10442834;28;20205;-30
2022/11/19 17:49:49;;;;;;;2.70;0.90;;;;;;;18.08;59.42;96146.31;10438440;28;20773;-31
2022/11/19 17:54:52;;;;;;;0.95;0.63;;;;;;;18.07;59.49;96159.81;10432569;28;20040;-32
2022/11/19 17:59:52;;;;;;;1.35;1.25;;;;;;;18.04;58.35;96167.44;10441368;28;20280;-31
2022/11/19 18:04:53;;;;;;;3.40;1.43;;;;;;;18.05;58.95;96159.81;10435972;28;20136;-31
2022/11/19 18:09:53;;;;;;;5.40;1.23;;;;;;;18.09;59.94;96171.59;10437350;28;20294;-31
2022/11/19 18:14:53;;;;;;;4.90;1.47;;;;;;;18.10;59.44;96169.94;10437434;28;20295;-31
2022/11/19 18:19:54;;;;;;;4.38;1.45;;;;;;;18.00;58.55;96173.38;10444325;28;20287;-31
2022/11/19 18:24:56;;;;;;;2.73;1.70;;;;;;;18.05;58.80;96166.56;10432087;28;20037;-32
2022/11/19 18:29:56;;;;;;;2.08;1.52;;;;;;;18.06;58.94;96173.31;10436912;28;20290;-31
2022/11/19 18:34:56;;;;;;;2.03;1.60;;;;;;;18.10;58.79;96172.47;10448316;28;20051;-31
2022/11/19 18:39:57;;;;;;;4.57;1.80;;;;;;;18.15;59.03;96163.97;10436701;28;20110;-30
2022/11/19 18:44:57;;;;;;;2.53;1.40;;;;;;;18.17;58.91;96174.09;10441138;28;20040;-30
2022/11/19 18:49:57;;;;;;;4.13;1.97;;;;;;;18.17;59.22;96172.38;10444420;28;20043;-30
2022/11/19 18:54:58;;;;;;;13.63;4.43;;;;;;;18.15;58.96;96175.81;10438350;28;20039;-31
2022/11/19 18:59:58;;;;;;;11.93;5.10;;;;;;;18.16;59.23;96180.03;10434454;28;20322;-32
2022/11/19 19:04:58;;;;;;;13.10;4.40;;;;;;;18.16;59.20;96180.03;10442286;28;20041;-33
2022/11/19 19:09:59;;;;;;;7.97;4.30;;;;;;;18.17;59.25;96186.78;10444199;28;20051;-31
2022/11/19 19:14:59;;;;;;;12.07;3.93;;;;;;;18.17;59.06;96186.78;10444603;28;20653;-33
2022/11/19 19:19:59;;;;;;;8.68;4.10;;;;;;;18.15;59.13;96185.94;10426432;28;20045;-33
2022/11/19 19:25:00;;;;;;;11.80;4.53;;;;;;;18.14;59.99;96194.38;10418904;28;20056;-31
2022/11/19 19:30:00;;;;;;;8.57;3.90;;;;;;;18.06;60.25;96196.13;10430415;28;20124;-31
2022/11/19 19:35:01;;;;;;;11.73;4.50;;;;;;;17.99;60.23;96186.91;10432190;28;20302;-32
2022/11/19 19:40:01;;;;;;;14.30;4.43;;;;;;;18.10;60.30;96205.38;10425873;28;20431;-31
2022/11/19 19:45:01;;;;;;;10.77;3.67;;;;;;;18.16;60.54;96200.28;10427198;28;20128;-31
2022/11/19 19:50:02;;;;;;;7.03;3.28;;;;;;;18.12;60.50;96203.69;10425072;28;20295;-30
2022/11/19 19:55:03;;;;;;;14.55;3.67;;;;;;;18.05;60.45;96207.97;10428647;28;20047;-31
2022/11/19 20:00:03;;;;;;;11.82;4.13;;;;;;;18.05;60.37;96207.97;10422686;28;20044;-31
2022/11/19 20:05:12;;;;;;;9.82;3.58;;;;;;;18.01;60.44;96216.41;10420101;28;20131;-31
2022/11/19 20:10:13;;;;;;;8.10;3.60;;;;;;;17.99;60.95;96217.28;10429169;28;20096;-31
2022/11/19 20:15:13;;;;;;;6.93;3.30;;;;;;;18.00;60.73;96221.50;10426012;28;20053;-31
2022/11/19 20:20:14;;;;;;;6.97;2.90;;;;;;;17.99;60.78;96215.59;10433334;28;20036;-31
2022/11/19 20:25:14;;;;;;;6.40;3.17;;;;;;;17.98;60.71;96221.50;10431680;28;20032;-33
2022/11/19 20:30:15;;;;;;;7.20;3.00;;;;;;;17.97;60.75;96224.03;10432788;28;20410;-31
2022/11/19 20:35:15;;;;;;;6.00;2.63;;;;;;;17.95;60.92;96226.59;10439292;28;20445;-32
2022/11/19 20:40:15;;;;;;;4.27;3.10;;;;;;;17.96;60.73;96222.34;10433553;28;20037;-32
2022/11/19 20:45:16;;;;;;;13.07;3.03;;;;;;;18.01;59.23;96213.06;10435549;28;20308;-32
2022/11/19 20:50:16;;;;;;;6.47;3.38;;;;;;;18.07;60.43;96225.69;10437814;28;20037;-31
2022/11/19 20:55:16;;;;;;;4.53;2.83;;;;;;;18.10;60.50;96230.72;10439350;28;20024;-32
2022/11/19 21:00:17;;;;;;;7.73;3.30;;;;;;;18.09;60.27;96231.56;10435886;28;20669;-31
2022/11/19 21:05:18;;;;;;;3.78;2.38;;;;;;;18.09;59.61;96231.56;10432837;28;20102;-32
2022/11/19 21:10:18;;;;;;;7.03;3.07;;;;;;;18.08;60.24;96233.25;10440952;28;20403;-30
2022/11/19 21:15:18;;;;;;;5.40;2.93;;;;;;;18.09;59.98;96236.66;10431558;28;20443;-30
2022/11/19 21:20:20;;;;;;;9.23;3.30;;;;;;;18.09;60.80;96239.19;10429324;28;20075;-31
2022/11/19 21:25:20;;;;;;;8.27;3.40;;;;;;;18.11;61.45;96240.00;10428400;28;20498;-31
2022/11/19 21:30:21;;;;;;;7.93;4.20;;;;;;;18.11;61.42;96233.25;10436347;28;20113;-31
2022/11/19 21:35:21;;;;;;;10.10;3.87;;;;;;;18.20;61.02;96237.41;10443283;28;20759;-31
2022/11/19 21:40:22;;;;;;;7.17;4.60;;;;;;;18.27;60.64;96244.13;10435404;28;20143;-31
2022/11/19 21:45:23;;;;;;;5.93;3.80;;;;;;;18.23;61.23;96238.22;10440979;28;20045;-31
2022/11/19 21:50:23;;;;;;;10.32;4.45;;;;;;;18.21;60.91;96234.00;10440114;28;20075;-30
2022/11/19 21:55:24;;;;;;;9.38;3.65;;;;;;;18.27;60.59;96246.66;10436626;28;20174;-31
2022/11/19 22:00:24;;;;;;;12.98;4.60;;;;;;;18.26;60.72;96237.38;10435043;28;20032;-31
2022/11/19 22:05:25;;;;;;;10.77;3.75;;;;;;;18.21;60.51;96244.16;10438428;28;20029;-32
2022/11/19 22:10:26;;;;;;;9.93;3.83;;;;;;;18.23;58.77;96239.91;10430669;28;20033;-31
2022/11/19 22:15:27;;;;;;;11.93;3.80;;;;;;;18.22;59.59;96230.63;10426323;28;20507;-31
2022/11/19 22:20:27;;;;;;;13.13;4.10;;;;;;;18.32;59.42;96233.13;10432801;28;20428;-32
2022/11/19 22:25:27;;;;;;;13.30;4.97;;;;;;;18.41;61.00;96227.16;10423298;28;20073;-31
2022/11/19 22:30:28;;;;;;;9.03;3.90;;;;;;;18.34;60.21;96231.41;10435649;28;20028;-31
2022/11/19 22:35:28;;;;;;;5.30;3.07;;;;;;;18.29;60.45;96232.28;10443661;28;20041;-31
2022/11/19 22:40:29;;;;;;;11.77;4.17;;;;;;;18.30;60.82;96239.06;10434549;28;20040;-31
2022/11/19 22:45:30;;;;;;;7.70;3.40;;;;;;;18.32;59.96;96232.31;10438464;28;20045;-31
2022/11/19 22:50:30;;;;;;;6.68;3.40;;;;;;;18.27;60.26;96234.84;10439510;28;20029;-28
2022/11/19 22:55:36;;;;;;;19.03;3.73;;;;;;;18.26;61.32;96229.78;10436291;28;20554;-29
2022/11/19 23:00:36;;;;;;;8.63;3.10;;;;;;;18.28;61.93;96238.19;10440328;28;20376;-29
2022/11/19 23:05:37;;;;;;;11.73;4.20;;;;;;;18.38;61.75;96232.25;10436805;28;20287;-29
2022/11/19 23:10:37;;;;;;;8.65;3.45;;;;;;;18.34;62.32;96230.59;10442148;28;20698;-28
2022/11/19 23:15:38;;;;;;;9.10;3.17;;;;;;;18.35;60.94;96237.34;10439405;28;20028;-28
2022/11/19 23:20:38;;;;;;;14.73;3.30;;;;;;;18.35;61.76;96232.28;10441593;28;20037;-29
2022/11/19 23:25:38;;;;;;;13.23;3.73;;;;;;;18.33;61.63;96228.91;10429561;28;20211;-29
2022/11/19 23:30:39;;;;;;;9.27;3.67;;;;;;;18.25;62.13;96230.63;10444289;28;20022;-28
2022/11/19 23:35:39;;;;;;;11.70;3.87;;;;;;;18.28;62.20;96236.53;10448712;28;20041;-28
2022/11/19 23:40:40;;;;;;;16.93;4.00;;;;;;;18.28;62.83;96233.97;10440171;28;20044;-28
2022/11/19 23:45:40;;;;;;;7.18;3.88;;;;;;;18.27;62.44;96234.84;10435923;28;20056;-29
2022/11/19 23:50:40;;;;;;;6.30;3.00;;;;;;;18.30;62.23;96234.84;10441743;28;20577;-28
2022/11/19 23:55:45;;;;;;;6.87;3.13;;;;;;;18.30;62.80;96236.53;10446193;28;20511;-29
